CheckWX is a tool to help pilots better visualize weather data.  It is not intended as a substitute for an official pre-flight weather briefing.

15:03:45 UTC

KGEG METAR
Spokane International Airport
Spokane, Washington, USA
Current

11 mins ago

KGEG 231453Z 05008KT 10SM BKN250 14/02 A3001 RMK AO2 SLP153 T01440022 56006
Observed
May-23 @ 14:53 UTC
Wind
  • 050° at 8 KTS
Visibility
10 SM
Flight Rules
VFR
Cloud Levels
  • Broken at 25,000' AGL
Temperature
14°C / 57°F
Dewpoint
C / 36°F
Humidity
44%
Altimeter
30.01" Hg
Pressure
1016.22 hPa
Previous

1 hour ago

KGEG 231353Z 05007KT 10SM BKN250 12/02 A3001 RMK AO2 SLP156 T01220017
Observed
May-23 @ 13:53 UTC
Wind
  • 050° at 7 KTS
Visibility
10 SM
Flight Rules
VFR
Cloud Levels
  • Broken at 25,000' AGL
Temperature
12°C / 54°F
Dewpoint
C / 36°F
Humidity
51%
Altimeter
30.01" Hg
Pressure
1016.22 hPa
Previous

2 hours ago

KGEG 231253Z 02004KT 10SM FEW200 BKN250 10/02 A3002 RMK AO2 SLP159 T01000017
Observed
May-23 @ 12:53 UTC
Wind
  • 020° at 4 KTS
Visibility
10 SM
Flight Rules
VFR
Cloud Levels
  • Few at 20,000' AGL
  • Broken at 25,000' AGL
Temperature
10°C / 50°F
Dewpoint
C / 36°F
Humidity
58%
Altimeter
30.02" Hg
Pressure
1016.62 hPa